sensor_id;sensor_type;location;lat;lon;timestamp;pressure;altitude;pressure_sealevel;temperature;humidity
7182;BME280;3632;42.724;23.298;2023-10-19T00:00:20;95326.09;;;8.61;100.00
7182;BME280;3632;42.724;23.298;2023-10-19T00:02:48;95392.06;;;8.86;100.00
7182;BME280;3632;42.724;23.298;2023-10-19T00:05:16;95446.72;;;8.92;100.00
7182;BME280;3632;42.724;23.298;2023-10-19T00:07:42;95467.47;;;9.22;100.00
7182;BME280;3632;42.724;23.298;2023-10-19T00:10:11;95304.13;;;7.98;100.00
7182;BME280;3632;42.724;23.298;2023-10-19T00:12:40;95482.69;;;9.11;100.00
7182;BME280;3632;42.724;23.298;2023-10-19T00:15:09;95454.56;;;8.89;100.00
7182;BME280;3632;42.724;23.298;2023-10-19T00:17:36;95448.47;;;8.79;100.00
7182;BME280;3632;42.724;23.298;2023-10-19T00:20:06;95454.19;;;8.82;100.00
7182;BME280;3632;42.724;23.298;2023-10-19T00:22:54;95461.31;;;8.77;100.00
7182;BME280;3632;42.724;23.298;2023-10-19T00:25:24;95455.22;;;8.54;100.00
7182;BME280;3632;42.724;23.298;2023-10-19T00:27:50;95455.00;;;8.57;100.00
7182;BME280;3632;42.724;23.298;2023-10-19T00:30:17;95454.41;;;8.54;100.00
7182;BME280;3632;42.724;23.298;2023-10-19T00:32:49;95409.72;;;8.13;100.00
7182;BME280;3632;42.724;23.298;2023-10-19T00:35:16;95451.88;;;8.41;100.00
7182;BME280;3632;42.724;23.298;2023-10-19T00:38:00;95447.81;;;8.51;100.00
7182;BME280;3632;42.724;23.298;2023-10-19T00:40:51;95423.94;;;8.28;100.00
7182;BME280;3632;42.724;23.298;2023-10-19T00:43:27;95452.59;;;8.56;100.00
7182;BME280;3632;42.724;23.298;2023-10-19T00:46:00;95448.75;;;8.38;100.00
7182;BME280;3632;42.724;23.298;2023-10-19T00:48:34;95449.56;;;8.51;100.00
7182;BME280;3632;42.724;23.298;2023-10-19T00:51:01;95451.75;;;8.68;100.00
7182;BME280;3632;42.724;23.298;2023-10-19T00:53:37;95447.56;;;8.80;100.00
7182;BME280;3632;42.724;23.298;2023-10-19T00:56:07;95442.13;;;8.97;100.00
7182;BME280;3632;42.724;23.298;2023-10-19T00:58:36;95442.00;;;9.11;100.00
7182;BME280;3632;42.724;23.298;2023-10-19T01:01:06;95445.56;;;9.08;100.00
7182;BME280;3632;42.724;23.298;2023-10-19T01:03:34;95457.31;;;8.86;100.00
7182;BME280;3632;42.724;23.298;2023-10-19T01:06:04;95440.38;;;8.74;100.00
7182;BME280;3632;42.724;23.298;2023-10-19T01:08:36;95446.63;;;8.93;100.00
7182;BME280;3632;42.724;23.298;2023-10-19T01:11:10;95444.47;;;9.00;100.00
7182;BME280;3632;42.724;23.298;2023-10-19T01:13:38;95459.13;;;8.96;100.00
7182;BME280;3632;42.724;23.298;2023-10-19T01:16:12;95444.72;;;8.84;100.00
7182;BME280;3632;42.724;23.298;2023-10-19T01:18:41;95446.38;;;9.09;100.00
7182;BME280;3632;42.724;23.298;2023-10-19T01:21:08;95457.25;;;9.11;99.96
7182;BME280;3632;42.724;23.298;2023-10-19T01:23:38;95447.31;;;9.08;100.00
7182;BME280;3632;42.724;23.298;2023-10-19T01:26:06;95449.16;;;8.93;100.00
7182;BME280;3632;42.724;23.298;2023-10-19T01:28:35;95449.53;;;8.63;100.00
7182;BME280;3632;42.724;23.298;2023-10-19T01:31:10;95357.13;;;8.15;100.00
7182;BME280;3632;42.724;23.298;2023-10-19T01:33:41;95449.50;;;8.76;100.00
7182;BME280;3632;42.724;23.298;2023-10-19T01:36:09;95236.41;;;7.50;100.00
7182;BME280;3632;42.724;23.298;2023-10-19T01:38:41;95452.94;;;8.88;100.00
7182;BME280;3632;42.724;23.298;2023-10-19T01:41:08;95414.19;;;8.60;100.00
7182;BME280;3632;42.724;23.298;2023-10-19T01:43:41;95454.56;;;8.89;100.00
7182;BME280;3632;42.724;23.298;2023-10-19T01:46:08;95450.09;;;8.80;100.00
7182;BME280;3632;42.724;23.298;2023-10-19T01:48:38;95466.88;;;8.95;100.00
7182;BME280;3632;42.724;23.298;2023-10-19T01:51:06;95395.69;;;8.46;100.00
7182;BME280;3632;42.724;23.298;2023-10-19T01:53:36;95461.44;;;9.12;100.00
7182;BME280;3632;42.724;23.298;2023-10-19T01:56:06;95459.78;;;9.11;100.00
7182;BME280;3632;42.724;23.298;2023-10-19T01:58:36;95458.63;;;8.91;100.00
7182;BME280;3632;42.724;23.298;2023-10-19T02:01:02;95445.50;;;8.48;100.00
7182;BME280;3632;42.724;23.298;2023-10-19T02:03:33;95443.41;;;8.28;100.00
7182;BME280;3632;42.724;23.298;2023-10-19T02:06:01;95446.78;;;8.03;100.00
7182;BME280;3632;42.724;23.298;2023-10-19T02:08:37;95329.75;;;7.18;100.00
7182;BME280;3632;42.724;23.298;2023-10-19T02:11:05;95444.53;;;7.99;100.00
7182;BME280;3632;42.724;23.298;2023-10-19T02:13:39;95455.47;;;7.87;100.00
7182;BME280;3632;42.724;23.298;2023-10-19T02:16:05;95455.78;;;7.95;100.00
7182;BME280;3632;42.724;23.298;2023-10-19T02:18:33;95460.66;;;7.98;100.00
7182;BME280;3632;42.724;23.298;2023-10-19T02:21:00;95456.91;;;8.03;100.00
7182;BME280;3632;42.724;23.298;2023-10-19T02:23:32;95446.69;;;8.17;100.00
7182;BME280;3632;42.724;23.298;2023-10-19T02:26:00;95455.84;;;8.33;100.00
7182;BME280;3632;42.724;23.298;2023-10-19T02:28:29;95456.09;;;7.90;100.00
7182;BME280;3632;42.724;23.298;2023-10-19T02:30:57;95455.38;;;7.75;100.00
7182;BME280;3632;42.724;23.298;2023-10-19T02:33:28;95346.53;;;7.33;100.00
7182;BME280;3632;42.724;23.298;2023-10-19T02:35:55;95329.53;;;6.96;100.00
7182;BME280;3632;42.724;23.298;2023-10-19T02:38:22;95454.38;;;7.91;100.00
7182;BME280;3632;42.724;23.298;2023-10-19T02:40:48;95402.41;;;7.71;100.00
7182;BME280;3632;42.724;23.298;2023-10-19T02:43:15;95452.28;;;8.10;100.00
7182;BME280;3632;42.724;23.298;2023-10-19T02:45:43;95453.88;;;8.23;100.00
7182;BME280;3632;42.724;23.298;2023-10-19T02:48:13;95456.66;;;8.33;100.00
7182;BME280;3632;42.724;23.298;2023-10-19T02:50:39;95447.03;;;8.38;100.00
7182;BME280;3632;42.724;23.298;2023-10-19T02:53:05;95448.22;;;8.33;100.00
7182;BME280;3632;42.724;23.298;2023-10-19T02:55:31;95452.88;;;8.13;100.00
7182;BME280;3632;42.724;23.298;2023-10-19T02:57:58;95444.13;;;7.79;100.00
7182;BME280;3632;42.724;23.298;2023-10-19T03:00:24;95406.72;;;7.56;100.00
7182;BME280;3632;42.724;23.298;2023-10-19T03:02:59;95441.94;;;7.61;100.00
7182;BME280;3632;42.724;23.298;2023-10-19T03:05:25;95447.88;;;7.47;100.00
7182;BME280;3632;42.724;23.298;2023-10-19T03:07:52;95400.41;;;7.10;100.00
7182;BME280;3632;42.724;23.298;2023-10-19T03:10:18;95451.63;;;7.15;100.00
7182;BME280;3632;42.724;23.298;2023-10-19T03:12:50;95450.53;;;7.19;100.00
7182;BME280;3632;42.724;23.298;2023-10-19T03:15:16;95465.38;;;7.25;100.00
7182;BME280;3632;42.724;23.298;2023-10-19T03:17:46;95448.31;;;7.27;100.00
7182;BME280;3632;42.724;23.298;2023-10-19T03:20:13;95446.97;;;7.21;100.00
7182;BME280;3632;42.724;23.298;2023-10-19T03:22:42;95453.72;;;7.35;100.00
7182;BME280;3632;42.724;23.298;2023-10-19T03:25:08;95380.00;;;6.99;100.00
7182;BME280;3632;42.724;23.298;2023-10-19T03:28:01;95452.63;;;7.78;100.00
7182;BME280;3632;42.724;23.298;2023-10-19T03:30:33;95449.00;;;7.95;100.00
7182;BME280;3632;42.724;23.298;2023-10-19T03:33:04;95447.34;;;7.81;100.00
7182;BME280;3632;42.724;23.298;2023-10-19T03:35:32;95440.94;;;7.63;100.00
7182;BME280;3632;42.724;23.298;2023-10-19T03:38:00;95449.28;;;7.78;100.00
7182;BME280;3632;42.724;23.298;2023-10-19T03:40:33;95442.78;;;7.74;100.00
7182;BME280;3632;42.724;23.298;2023-10-19T03:43:04;95432.63;;;7.34;100.00
7182;BME280;3632;42.724;23.298;2023-10-19T03:45:42;95428.91;;;6.86;100.00
7182;BME280;3632;42.724;23.298;2023-10-19T03:48:13;95435.72;;;7.13;100.00
7182;BME280;3632;42.724;23.298;2023-10-19T03:50:43;95431.72;;;7.35;100.00
7182;BME280;3632;42.724;23.298;2023-10-19T03:53:09;95430.81;;;7.37;100.00
7182;BME280;3632;42.724;23.298;2023-10-19T03:55:38;95422.41;;;7.36;100.00
7182;BME280;3632;42.724;23.298;2023-10-19T03:58:08;95429.31;;;7.34;100.00
7182;BME280;3632;42.724;23.298;2023-10-19T04:00:37;95430.81;;;7.10;100.00
7182;BME280;3632;42.724;23.298;2023-10-19T04:03:04;95425.75;;;7.10;100.00
7182;BME280;3632;42.724;23.298;2023-10-19T04:05:31;95430.31;;;7.44;100.00
7182;BME280;3632;42.724;23.298;2023-10-19T04:08:05;95329.84;;;7.04;100.00
7182;BME280;3632;42.724;23.298;2023-10-19T04:10:38;95433.84;;;7.81;100.00
7182;BME280;3632;42.724;23.298;2023-10-19T04:13:10;95424.34;;;7.85;100.00
7182;BME280;3632;42.724;23.298;2023-10-19T04:15:39;95319.28;;;6.97;100.00
7182;BME280;3632;42.724;23.298;2023-10-19T04:18:07;95448.72;;;7.60;100.00
7182;BME280;3632;42.724;23.298;2023-10-19T04:20:37;95437.94;;;7.44;100.00
7182;BME280;3632;42.724;23.298;2023-10-19T04:23:23;95438.88;;;7.56;100.00
7182;BME280;3632;42.724;23.298;2023-10-19T04:25:52;95429.31;;;7.34;100.00
7182;BME280;3632;42.724;23.298;2023-10-19T04:28:21;95280.00;;;6.51;100.00
7182;BME280;3632;42.724;23.298;2023-10-19T04:30:56;95428.78;;;7.29;100.00
7182;BME280;3632;42.724;23.298;2023-10-19T04:33:25;95342.31;;;6.80;100.00
7182;BME280;3632;42.724;23.298;2023-10-19T04:35:53;95342.56;;;6.89;100.00
7182;BME280;3632;42.724;23.298;2023-10-19T04:38:23;95321.19;;;6.67;100.00
7182;BME280;3632;42.724;23.298;2023-10-19T04:40:50;95419.16;;;7.34;100.00
7182;BME280;3632;42.724;23.298;2023-10-19T04:43:16;95419.94;;;7.34;100.00
7182;BME280;3632;42.724;23.298;2023-10-19T04:45:43;95417.09;;;7.26;100.00
7182;BME280;3632;42.724;23.298;2023-10-19T04:48:10;95406.97;;;7.39;100.00
7182;BME280;3632;42.724;23.298;2023-10-19T04:50:37;95414.59;;;7.39;100.00
7182;BME280;3632;42.724;23.298;2023-10-19T04:53:05;95407.81;;;7.52;100.00
7182;BME280;3632;42.724;23.298;2023-10-19T04:55:33;95411.69;;;7.58;100.00
7182;BME280;3632;42.724;23.298;2023-10-19T04:58:00;95397.03;;;7.36;100.00
7182;BME280;3632;42.724;23.298;2023-10-19T05:00:27;95404.38;;;7.53;100.00
7182;BME280;3632;42.724;23.298;2023-10-19T05:02:53;95408.16;;;7.60;100.00
7182;BME280;3632;42.724;23.298;2023-10-19T05:05:20;95418.00;;;7.77;100.00
7182;BME280;3632;42.724;23.298;2023-10-19T05:07:47;95253.59;;;6.81;100.00
7182;BME280;3632;42.724;23.298;2023-10-19T05:10:14;95419.31;;;7.58;100.00
7182;BME280;3632;42.724;23.298;2023-10-19T05:12:42;95294.06;;;6.96;100.00
7182;BME280;3632;42.724;23.298;2023-10-19T05:15:09;95419.25;;;7.85;100.00
7182;BME280;3632;42.724;23.298;2023-10-19T05:17:36;95272.00;;;6.83;100.00
7182;BME280;3632;42.724;23.298;2023-10-19T05:20:04;95409.31;;;7.94;100.00
7182;BME280;3632;42.724;23.298;2023-10-19T05:22:32;95417.84;;;7.80;100.00
7182;BME280;3632;42.724;23.298;2023-10-19T05:24:59;95388.94;;;7.44;100.00
7182;BME280;3632;42.724;23.298;2023-10-19T05:27:26;95389.78;;;7.57;100.00
7182;BME280;3632;42.724;23.298;2023-10-19T05:29:54;95423.13;;;8.15;100.00
7182;BME280;3632;42.724;23.298;2023-10-19T05:32:21;95402.19;;;8.24;100.00
7182;BME280;3632;42.724;23.298;2023-10-19T05:34:49;95433.19;;;8.55;100.00
7182;BME280;3632;42.724;23.298;2023-10-19T05:37:16;95430.00;;;8.77;100.00
7182;BME280;3632;42.724;23.298;2023-10-19T05:39:43;95423.56;;;8.84;100.00
7182;BME280;3632;42.724;23.298;2023-10-19T05:42:10;95424.56;;;8.94;100.00
7182;BME280;3632;42.724;23.298;2023-10-19T05:44:36;95427.28;;;9.03;100.00
7182;BME280;3632;42.724;23.298;2023-10-19T05:47:06;95434.19;;;9.25;100.00
7182;BME280;3632;42.724;23.298;2023-10-19T05:49:33;95334.56;;;8.73;100.00
7182;BME280;3632;42.724;23.298;2023-10-19T05:52:00;95331.97;;;8.85;100.00
7182;BME280;3632;42.724;23.298;2023-10-19T05:54:28;95421.22;;;9.41;100.00
7182;BME280;3632;42.724;23.298;2023-10-19T05:56:56;95428.69;;;9.07;100.00
7182;BME280;3632;42.724;23.298;2023-10-19T05:59:23;95426.22;;;8.82;100.00
7182;BME280;3632;42.724;23.298;2023-10-19T06:01:52;95431.31;;;8.82;100.00
7182;BME280;3632;42.724;23.298;2023-10-19T06:04:20;95256.28;;;7.30;100.00
7182;BME280;3632;42.724;23.298;2023-10-19T06:06:47;95438.16;;;8.06;100.00
7182;BME280;3632;42.724;23.298;2023-10-19T06:09:14;95439.38;;;8.00;100.00
7182;BME280;3632;42.724;23.298;2023-10-19T06:11:41;95435.78;;;7.77;100.00
7182;BME280;3632;42.724;23.298;2023-10-19T06:14:08;95449.19;;;7.79;100.00
7182;BME280;3632;42.724;23.298;2023-10-19T06:16:35;95326.84;;;7.24;100.00
7182;BME280;3632;42.724;23.298;2023-10-19T06:19:03;94875.50;;;4.49;100.00
7182;BME280;3632;42.724;23.298;2023-10-19T06:21:31;95428.50;;;7.98;100.00
7182;BME280;3632;42.724;23.298;2023-10-19T06:23:59;95432.97;;;7.95;100.00
7182;BME280;3632;42.724;23.298;2023-10-19T06:26:26;95393.97;;;7.70;100.00
7182;BME280;3632;42.724;23.298;2023-10-19T06:28:52;95383.09;;;7.68;100.00
7182;BME280;3632;42.724;23.298;2023-10-19T06:31:23;95393.97;;;7.70;100.00
7182;BME280;3632;42.724;23.298;2023-10-19T06:33:51;95355.88;;;7.45;100.00
7182;BME280;3632;42.724;23.298;2023-10-19T06:36:18;95440.56;;;7.95;100.00
7182;BME280;3632;42.724;23.298;2023-10-19T06:38:46;95437.94;;;8.09;100.00
7182;BME280;3632;42.724;23.298;2023-10-19T06:41:16;95440.41;;;8.23;100.00
7182;BME280;3632;42.724;23.298;2023-10-19T06:43:44;95445.97;;;8.28;100.00
7182;BME280;3632;42.724;23.298;2023-10-19T06:46:10;95444.25;;;8.41;100.00
7182;BME280;3632;42.724;23.298;2023-10-19T06:48:38;95456.56;;;8.47;100.00
7182;BME280;3632;42.724;23.298;2023-10-19T06:51:05;95412.16;;;8.40;100.00
7182;BME280;3632;42.724;23.298;2023-10-19T06:53:31;95440.41;;;8.61;100.00
7182;BME280;3632;42.724;23.298;2023-10-19T06:56:00;95424.41;;;8.71;100.00
7182;BME280;3632;42.724;23.298;2023-10-19T06:58:29;95421.44;;;8.90;100.00
7182;BME280;3632;42.724;23.298;2023-10-19T07:00:56;95343.88;;;8.61;100.00
7182;BME280;3632;42.724;23.298;2023-10-19T07:03:25;95376.53;;;9.02;100.00
7182;BME280;3632;42.724;23.298;2023-10-19T07:05:53;95379.44;;;8.85;100.00
7182;BME280;3632;42.724;23.298;2023-10-19T07:08:21;95415.75;;;9.34;100.00
7182;BME280;3632;42.724;23.298;2023-10-19T07:10:48;95421.81;;;9.44;100.00
7182;BME280;3632;42.724;23.298;2023-10-19T07:13:17;95268.28;;;8.52;100.00
7182;BME280;3632;42.724;23.298;2023-10-19T07:15:45;95418.97;;;9.60;100.00
7182;BME280;3632;42.724;23.298;2023-10-19T07:18:12;95428.25;;;9.61;100.00
7182;BME280;3632;42.724;23.298;2023-10-19T07:20:40;95418.66;;;9.64;100.00
7182;BME280;3632;42.724;23.298;2023-10-19T07:23:08;95415.00;;;10.26;100.00
7182;BME280;3632;42.724;23.298;2023-10-19T07:25:44;95405.41;;;9.94;100.00
7182;BME280;3632;42.724;23.298;2023-10-19T07:28:13;95419.91;;;10.05;100.00
7182;BME280;3632;42.724;23.298;2023-10-19T07:30:43;95417.56;;;9.91;100.00
7182;BME280;3632;42.724;23.298;2023-10-19T07:33:10;95379.78;;;9.62;100.00
7182;BME280;3632;42.724;23.298;2023-10-19T07:35:42;95422.56;;;10.15;100.00
7182;BME280;3632;42.724;23.298;2023-10-19T07:38:12;95446.63;;;9.88;100.00
7182;BME280;3632;42.724;23.298;2023-10-19T07:40:40;95388.50;;;9.36;100.00
7182;BME280;3632;42.724;23.298;2023-10-19T07:43:06;95423.25;;;9.59;100.00
7182;BME280;3632;42.724;23.298;2023-10-19T07:45:33;95431.19;;;9.79;100.00
7182;BME280;3632;42.724;23.298;2023-10-19T07:48:04;95503.19;;;10.16;100.00
7182;BME280;3632;42.724;23.298;2023-10-19T07:50:32;95437.03;;;10.03;100.00
7182;BME280;3632;42.724;23.298;2023-10-19T07:52:59;95429.53;;;9.67;100.00
7182;BME280;3632;42.724;23.298;2023-10-19T07:55:26;95434.63;;;9.43;100.00
7182;BME280;3632;42.724;23.298;2023-10-19T07:57:54;95426.47;;;9.50;100.00
7182;BME280;3632;42.724;23.298;2023-10-19T08:00:21;95441.66;;;9.98;100.00
7182;BME280;3632;42.724;23.298;2023-10-19T08:02:48;95278.66;;;9.42;100.00
7182;BME280;3632;42.724;23.298;2023-10-19T08:05:18;95424.75;;;10.43;100.00
7182;BME280;3632;42.724;23.298;2023-10-19T08:07:45;95426.94;;;10.59;100.00
7182;BME280;3632;42.724;23.298;2023-10-19T08:10:13;95428.06;;;10.66;100.00
7182;BME280;3632;42.724;23.298;2023-10-19T08:12:41;95420.66;;;10.85;100.00
7182;BME280;3632;42.724;23.298;2023-10-19T08:15:09;95413.00;;;10.85;100.00
7182;BME280;3632;42.724;23.298;2023-10-19T08:17:37;95411.50;;;10.93;100.00
7182;BME280;3632;42.724;23.298;2023-10-19T08:20:05;95409.41;;;10.87;100.00
7182;BME280;3632;42.724;23.298;2023-10-19T08:22:36;95415.31;;;10.88;100.00
7182;BME280;3632;42.724;23.298;2023-10-19T08:25:03;95348.03;;;10.57;100.00
7182;BME280;3632;42.724;23.298;2023-10-19T08:27:37;95415.75;;;11.15;99.88
7182;BME280;3632;42.724;23.298;2023-10-19T08:30:06;95303.22;;;10.54;99.24
7182;BME280;3632;42.724;23.298;2023-10-19T08:32:34;95408.09;;;11.47;97.01
7182;BME280;3632;42.724;23.298;2023-10-19T08:35:01;95320.38;;;11.27;95.93
7182;BME280;3632;42.724;23.298;2023-10-19T08:37:28;95394.19;;;11.93;93.08
7182;BME280;3632;42.724;23.298;2023-10-19T08:39:56;95393.09;;;12.36;91.84
7182;BME280;3632;42.724;23.298;2023-10-19T08:42:23;95400.88;;;12.65;90.81
7182;BME280;3632;42.724;23.298;2023-10-19T08:44:50;95403.13;;;12.99;89.83
7182;BME280;3632;42.724;23.298;2023-10-19T08:47:17;95410.22;;;13.25;86.74
7182;BME280;3632;42.724;23.298;2023-10-19T08:49:43;95401.19;;;13.60;84.98
7182;BME280;3632;42.724;23.298;2023-10-19T08:52:12;95396.75;;;13.81;85.24
7182;BME280;3632;42.724;23.298;2023-10-19T08:54:41;95404.84;;;13.96;84.94
7182;BME280;3632;42.724;23.298;2023-10-19T08:57:10;95364.13;;;13.83;81.39
7182;BME280;3632;42.724;23.298;2023-10-19T08:59:37;95397.59;;;14.38;79.09
7182;BME280;3632;42.724;23.298;2023-10-19T09:02:07;95394.56;;;14.52;78.01
7182;BME280;3632;42.724;23.298;2023-10-19T09:04:41;95386.00;;;14.71;78.79
7182;BME280;3632;42.724;23.298;2023-10-19T09:07:08;95376.31;;;14.92;78.13
7182;BME280;3632;42.724;23.298;2023-10-19T09:09:35;95343.31;;;14.70;75.41
7182;BME280;3632;42.724;23.298;2023-10-19T09:12:06;95365.66;;;15.32;75.01
7182;BME280;3632;42.724;23.298;2023-10-19T09:14:35;95304.22;;;15.03;73.21
7182;BME280;3632;42.724;23.298;2023-10-19T09:17:06;95365.19;;;15.19;72.84
7182;BME280;3632;42.724;23.298;2023-10-19T09:19:37;95354.78;;;15.38;72.75
7182;BME280;3632;42.724;23.298;2023-10-19T09:22:04;95363.56;;;15.88;72.33
7182;BME280;3632;42.724;23.298;2023-10-19T09:24:42;95348.19;;;15.96;70.24
7182;BME280;3632;42.724;23.298;2023-10-19T09:27:10;95336.41;;;15.86;71.15
7182;BME280;3632;42.724;23.298;2023-10-19T09:29:39;95335.25;;;16.06;69.98
7182;BME280;3632;42.724;23.298;2023-10-19T09:32:07;95337.00;;;16.65;69.05
7182;BME280;3632;42.724;23.298;2023-10-19T09:34:34;95278.66;;;16.90;65.68
7182;BME280;3632;42.724;23.298;2023-10-19T09:37:02;95330.94;;;17.65;64.67
7182;BME280;3632;42.724;23.298;2023-10-19T09:39:29;95317.31;;;18.75;60.73
7182;BME280;3632;42.724;23.298;2023-10-19T09:42:00;95293.38;;;18.81;57.54
7182;BME280;3632;42.724;23.298;2023-10-19T09:44:34;95162.78;;;18.02;58.86
7182;BME280;3632;42.724;23.298;2023-10-19T09:47:10;95220.34;;;19.32;55.52
7182;BME280;3632;42.724;23.298;2023-10-19T09:49:38;95273.84;;;20.06;55.42
7182;BME280;3632;42.724;23.298;2023-10-19T09:52:06;95308.81;;;20.17;54.94
7182;BME280;3632;42.724;23.298;2023-10-19T09:54:41;95237.31;;;20.16;53.33
7182;BME280;3632;42.724;23.298;2023-10-19T09:57:16;95296.94;;;21.03;52.33
7182;BME280;3632;42.724;23.298;2023-10-19T09:59:45;95306.66;;;21.01;51.35
7182;BME280;3632;42.724;23.298;2023-10-19T10:02:15;95290.69;;;22.03;50.04
7182;BME280;3632;42.724;23.298;2023-10-19T10:04:43;95288.84;;;22.66;48.61
7182;BME280;3632;42.724;23.298;2023-10-19T10:07:12;95281.22;;;23.18;47.89
7182;BME280;3632;42.724;23.298;2023-10-19T10:09:39;95274.28;;;23.78;45.48
7182;BME280;3632;42.724;23.298;2023-10-19T10:12:16;95272.47;;;23.72;45.21
7182;BME280;3632;42.724;23.298;2023-10-19T10:14:54;95265.47;;;23.53;44.70
7182;BME280;3632;42.724;23.298;2023-10-19T10:17:23;95262.88;;;23.53;45.42
7182;BME280;3632;42.724;23.298;2023-10-19T10:19:53;95262.47;;;23.49;44.59
7182;BME280;3632;42.724;23.298;2023-10-19T10:22:22;95269.03;;;23.39;44.77
7182;BME280;3632;42.724;23.298;2023-10-19T10:24:53;95261.03;;;23.34;44.73
7182;BME280;3632;42.724;23.298;2023-10-19T10:27:21;94937.31;;;20.98;44.52
7182;BME280;3632;42.724;23.298;2023-10-19T10:29:55;95225.03;;;23.70;44.91
7182;BME280;3632;42.724;23.298;2023-10-19T10:32:44;95237.25;;;24.60;43.55
7182;BME280;3632;42.724;23.298;2023-10-19T10:38:16;95218.94;;;24.73;43.20
7182;BME280;3632;42.724;23.298;2023-10-19T10:40:43;95207.09;;;24.33;43.09
7182;BME280;3632;42.724;23.298;2023-10-19T10:43:11;95206.72;;;24.74;43.95
7182;BME280;3632;42.724;23.298;2023-10-19T10:45:38;95196.38;;;25.48;46.22
7182;BME280;3632;42.724;23.298;2023-10-19T10:48:11;95185.50;;;25.51;46.20
7182;BME280;3632;42.724;23.298;2023-10-19T10:50:38;95192.25;;;25.16;46.00
7182;BME280;3632;42.724;23.298;2023-10-19T10:53:07;95188.91;;;25.58;44.02
7182;BME280;3632;42.724;23.298;2023-10-19T10:55:33;95185.75;;;25.25;43.79
7182;BME280;3632;42.724;23.298;2023-10-19T10:58:00;95183.41;;;25.84;45.88
7182;BME280;3632;42.724;23.298;2023-10-19T11:00:27;95175.44;;;25.98;43.14
7182;BME280;3632;42.724;23.298;2023-10-19T11:03:00;95165.44;;;25.76;42.97
7182;BME280;3632;42.724;23.298;2023-10-19T11:05:30;95147.03;;;26.08;44.02
7182;BME280;3632;42.724;23.298;2023-10-19T11:08:05;95157.91;;;26.23;42.36
7182;BME280;3632;42.724;23.298;2023-10-19T11:10:33;95149.34;;;26.34;42.29
7182;BME280;3632;42.724;23.298;2023-10-19T11:13:00;95148.44;;;26.88;41.77
7182;BME280;3632;42.724;23.298;2023-10-19T11:15:27;95096.06;;;26.65;42.33
7182;BME280;3632;42.724;23.298;2023-10-19T11:17:54;95131.19;;;27.10;41.55
7182;BME280;3632;42.724;23.298;2023-10-19T11:20:21;95134.16;;;27.37;41.42
7182;BME280;3632;42.724;23.298;2023-10-19T11:22:51;95127.81;;;27.68;39.74
7182;BME280;3632;42.724;23.298;2023-10-19T11:25:19;95121.72;;;26.98;39.15
7182;BME280;3632;42.724;23.298;2023-10-19T11:27:46;95119.84;;;27.51;41.41
7182;BME280;3632;42.724;23.298;2023-10-19T11:30:14;95117.56;;;27.43;38.45
7182;BME280;3632;42.724;23.298;2023-10-19T11:32:48;95123.13;;;26.82;39.16
7182;BME280;3632;42.724;23.298;2023-10-19T11:35:18;95059.03;;;26.38;40.98
7182;BME280;3632;42.724;23.298;2023-10-19T11:37:50;95105.91;;;26.51;40.40
7182;BME280;3632;42.724;23.298;2023-10-19T11:40:18;95082.78;;;26.48;40.37
7182;BME280;3632;42.724;23.298;2023-10-19T11:42:45;95103.00;;;26.82;38.32
7182;BME280;3632;42.724;23.298;2023-10-19T11:45:12;95026.16;;;26.83;38.76
7182;BME280;3632;42.724;23.298;2023-10-19T11:47:39;95090.94;;;27.58;38.03
7182;BME280;3632;42.724;23.298;2023-10-19T11:50:07;95095.56;;;28.31;38.50
7182;BME280;3632;42.724;23.298;2023-10-19T11:52:37;95091.41;;;29.08;36.12
7182;BME280;3632;42.724;23.298;2023-10-19T11:55:06;94994.09;;;28.93;35.13
7182;BME280;3632;42.724;23.298;2023-10-19T11:57:34;95092.59;;;29.50;34.98
7182;BME280;3632;42.724;23.298;2023-10-19T12:00:00;95012.84;;;29.57;34.49
7182;BME280;3632;42.724;23.298;2023-10-19T12:02:34;95096.19;;;30.75;34.00
7182;BME280;3632;42.724;23.298;2023-10-19T12:05:03;95081.59;;;30.94;32.76
7182;BME280;3632;42.724;23.298;2023-10-19T12:07:31;95014.41;;;31.70;33.44
7182;BME280;3632;42.724;23.298;2023-10-19T12:09:59;95006.94;;;31.47;31.93
7182;BME280;3632;42.724;23.298;2023-10-19T12:12:27;95032.88;;;32.68;30.76
7182;BME280;3632;42.724;23.298;2023-10-19T12:14:54;95022.59;;;32.82;31.07
7182;BME280;3632;42.724;23.298;2023-10-19T12:17:23;95059.78;;;33.51;30.29
7182;BME280;3632;42.724;23.298;2023-10-19T12:19:51;95039.13;;;33.73;29.52
7182;BME280;3632;42.724;23.298;2023-10-19T12:22:18;95046.63;;;33.16;29.83
7182;BME280;3632;42.724;23.298;2023-10-19T12:24:46;95042.16;;;34.01;29.93
7182;BME280;3632;42.724;23.298;2023-10-19T12:27:13;95036.00;;;33.56;29.14
7182;BME280;3632;42.724;23.298;2023-10-19T12:29:41;95039.75;;;33.15;29.49
7182;BME280;3632;42.724;23.298;2023-10-19T12:32:09;95042.94;;;32.71;30.56
7182;BME280;3632;42.724;23.298;2023-10-19T12:34:40;95035.75;;;33.32;29.82
7182;BME280;3632;42.724;23.298;2023-10-19T12:37:06;95036.06;;;32.75;29.76
7182;BME280;3632;42.724;23.298;2023-10-19T12:39:35;95023.13;;;33.04;30.06
7182;BME280;3632;42.724;23.298;2023-10-19T12:42:08;95033.91;;;33.48;29.54
7182;BME280;3632;42.724;23.298;2023-10-19T12:44:35;95029.19;;;33.20;29.02
7182;BME280;3632;42.724;23.298;2023-10-19T12:47:08;95022.31;;;33.34;29.58
7182;BME280;3632;42.724;23.298;2023-10-19T12:49:38;95022.06;;;33.20;29.79
7182;BME280;3632;42.724;23.298;2023-10-19T12:52:06;95027.09;;;32.91;29.62
7182;BME280;3632;42.724;23.298;2023-10-19T12:54:33;94919.94;;;32.65;29.74
7182;BME280;3632;42.724;23.298;2023-10-19T12:57:01;94964.25;;;32.83;29.81
7182;BME280;3632;42.724;23.298;2023-10-19T12:59:29;95009.88;;;33.29;29.26
7182;BME280;3632;42.724;23.298;2023-10-19T13:01:56;95013.38;;;32.74;29.77
7182;BME280;3632;42.724;23.298;2023-10-19T13:04:25;95014.94;;;33.05;29.36
7182;BME280;3632;42.724;23.298;2023-10-19T13:06:56;95009.63;;;32.35;30.53
7182;BME280;3632;42.724;23.298;2023-10-19T13:09:24;94997.41;;;32.03;30.22
7182;BME280;3632;42.724;23.298;2023-10-19T13:11:57;94997.78;;;30.81;32.20
7182;BME280;3632;42.724;23.298;2023-10-19T13:14:24;95006.66;;;29.46;33.38
7182;BME280;3632;42.724;23.298;2023-10-19T13:16:51;94998.97;;;28.39;35.08
7182;BME280;3632;42.724;23.298;2023-10-19T13:19:18;95004.00;;;27.33;36.27
7182;BME280;3632;42.724;23.298;2023-10-19T13:21:47;94992.25;;;28.60;34.75